Overview Statistics Trail Chart Weather Telemetry Raw packets
 

This is the latest recevied weather packets stored in our database for station/object SALIDA. If no packets are shown the sender has not sent any weather packets the latest 10 day(s).

<< 1 2 3 4 5 6 >>
Time Temp. Humidity Pressure Rain* Wind** Luminosity Snow
1788529323 11.11° C 56% 1005.6 hPa 0 mm - - -
1788528423 10° C 60% 1005.4 hPa 0 mm - - -
1788527523 8.89° C 62% 1005.2 hPa 0 mm - - -
1788526623 9.44° C 60% 1004.6 hPa 0 mm - - -
1788525723 9.44° C 59% 1004.5 hPa 0 mm - - -
1788524823 10° C 56% 1004.2 hPa 0 mm - - -
1788523923 10.56° C 55% 1004.1 hPa 0 mm - - -
1788523023 11.11° C 53% 1004 hPa 0 mm - - -
1788522141 11.67° C 52% 1003.9 hPa 0 mm - - -
1788521223 11.67° C 52% 1003.8 hPa 0 mm - - -
1788520323 11.67° C 52% 1003.8 hPa 0 mm - - -
1788519423 11.67° C 52% 1003.7 hPa 0 mm - - -
1788518523 12.22° C 51% 1003.6 hPa 0 mm - - -
1788517623 12.22° C 51% 1003.5 hPa 0 mm - - -
1788516723 12.22° C 52% 1003.3 hPa 0 mm - - -
1788515823 12.22° C 51% 1003.3 hPa 0 mm - - -
1788514923 12.78° C 50% 1003.1 hPa 0 mm - - -
1788514023 13.33° C 48% 1003.1 hPa 0 mm - - -
1788513123 13.89° C 47% 1003.1 hPa 0 mm - - -
1788512223 13.89° C 48% 1003 hPa 0 mm - - -
1788511323 14.44° C 48% 1003.1 hPa 0 mm - - -
1788510423 14.44° C 47% 1003 hPa 0 mm - - -
1788509523 15.56° C 44% 1003.2 hPa 0 mm - - -
1788508623 15.56° C 42% 1003.1 hPa 0 mm - - -
1788507723 15° C 45% 1003.1 hPa 0 mm - - -

* Rain latest hour (hover to see other rain measurements)
** Current wind speed in m/s (hover to see current wind gust speed)